Terminal Aerodrome Forecast
Issued by NWS

Home | Current Version | Previous Version | Graphics & Text | Print | Product List | Glossary On
Versions: 1 2 3 4 5 6 7 8 9 10 11 12 13 14 15 16 17 18 19 20
000
FTUS43 KOAX 280500
TAFCDR
TAF
KCDR 280520Z 2806/2906 02007KT P6SM BKN010
      TEMPO 2806/2810 2SM BR
     FM281000 29006KT 1SM BR OVC012
     FM281500 32008KT P6SM BKN050
     FM282300 35006KT P6SM SCT050
     FM290200 23010KT P6SM FEW050=

USA.gov is the U.S. government's official web portal to all federal, state and local government web resources and services.